createdAt,value
2022-07-29T00:00:28.835Z,2.63
2022-07-29T00:02:55.882Z,2.55
2022-07-29T00:05:22.955Z,2.55
2022-07-29T00:07:49.918Z,2.42
2022-07-29T00:10:16.976Z,2.40
2022-07-29T00:12:43.932Z,2.75
2022-07-29T00:15:11.275Z,2.65
2022-07-29T00:17:38.383Z,2.85
2022-07-29T00:20:06.095Z,2.65
2022-07-29T00:22:33.068Z,2.90
2022-07-29T00:25:00.005Z,2.90
2022-07-29T00:27:27.348Z,2.80
2022-07-29T00:29:54.503Z,2.42
2022-07-29T00:32:21.543Z,2.50
2022-07-29T00:34:48.491Z,2.83
2022-07-29T00:37:15.436Z,2.60
2022-07-29T00:39:42.334Z,2.65
2022-07-29T00:42:09.329Z,2.63
2022-07-29T00:44:41.236Z,2.88
2022-07-29T00:47:09.709Z,2.50
2022-07-29T00:49:37.299Z,2.60
2022-07-29T00:52:05.936Z,2.65
2022-07-29T00:54:34.128Z,2.60
2022-07-29T00:57:01.991Z,2.65
2022-07-29T00:59:34.747Z,2.67
2022-07-29T01:02:04.368Z,2.60
2022-07-29T01:04:32.702Z,2.78
2022-07-29T01:07:01.592Z,2.75
2022-07-29T01:09:40.810Z,2.60
2022-07-29T01:12:17.195Z,2.67
2022-07-29T01:14:44.666Z,2.58
2022-07-29T01:17:37.395Z,3.00
2022-07-29T01:20:41.986Z,2.72
2022-07-29T01:23:43.649Z,2.70
2022-07-29T01:26:32.917Z,2.58
2022-07-29T01:29:05.359Z,3.13
2022-07-29T01:32:27.880Z,2.97
2022-07-29T01:35:20.047Z,2.72
2022-07-29T01:37:56.577Z,2.70
2022-07-29T01:40:32.179Z,3.05
2022-07-29T01:43:04.245Z,2.72
2022-07-29T01:45:44.073Z,3.08
2022-07-29T01:48:22.422Z,2.97
2022-07-29T01:51:15.639Z,2.90
2022-07-29T01:53:53.887Z,2.97
2022-07-29T01:56:22.753Z,2.70
2022-07-29T01:58:51.897Z,2.80
2022-07-29T02:01:21.282Z,2.88
2022-07-29T02:03:49.098Z,2.60
2022-07-29T02:06:20.148Z,2.72
2022-07-29T02:08:49.174Z,3.20
2022-07-29T02:11:16.295Z,3.05
2022-07-29T02:13:44.323Z,3.08
2022-07-29T02:16:12.871Z,2.80
2022-07-29T02:18:44.729Z,3.28
2022-07-29T02:21:14.841Z,3.03
2022-07-29T02:23:50.499Z,2.92
2022-07-29T02:26:21.465Z,2.65
2022-07-29T02:28:51.096Z,3.25
2022-07-29T02:31:22.414Z,2.80
2022-07-29T02:33:50.960Z,3.30
2022-07-29T02:36:18.765Z,3.20
2022-07-29T02:38:46.452Z,2.90
2022-07-29T02:41:17.591Z,2.78
2022-07-29T02:43:47.908Z,3.00
2022-07-29T02:46:29.070Z,3.00
2022-07-29T02:49:02.959Z,3.28
2022-07-29T02:51:44.021Z,3.40
2022-07-29T02:54:18.392Z,2.90
2022-07-29T02:56:46.809Z,2.95
2022-07-29T02:59:16.742Z,3.15
2022-07-29T03:01:44.921Z,3.33
2022-07-29T03:04:14.807Z,3.15
2022-07-29T03:06:44.355Z,3.33
2022-07-29T03:09:13.766Z,4.25
2022-07-29T03:11:49.666Z,3.25
2022-07-29T03:14:21.938Z,3.53
2022-07-29T03:16:50.435Z,3.08
2022-07-29T03:19:18.483Z,3.85
2022-07-29T03:21:45.457Z,3.20
2022-07-29T03:24:26.183Z,3.60
2022-07-29T03:26:53.363Z,4.07
2022-07-29T03:29:20.706Z,4.00
2022-07-29T03:31:47.680Z,3.33
2022-07-29T03:34:15.786Z,3.67
2022-07-29T03:36:43.200Z,4.75
2022-07-29T03:39:11.545Z,4.85
2022-07-29T03:41:40.245Z,3.60
2022-07-29T03:44:08.655Z,3.60
2022-07-29T03:46:38.106Z,3.38
2022-07-29T03:49:06.241Z,3.60
2022-07-29T03:51:34.366Z,3.28
2022-07-29T03:54:09.938Z,3.45
2022-07-29T03:56:41.163Z,3.42
2022-07-29T04:01:36.496Z,3.20
2022-07-29T04:04:04.283Z,3.60
2022-07-29T04:06:42.640Z,3.85
2022-07-29T04:09:10.228Z,3.45
2022-07-29T04:12:01.840Z,3.13
2022-07-29T04:14:27.026Z,3.38
2022-07-29T04:16:54.011Z,3.30
2022-07-29T04:19:21.059Z,3.28
2022-07-29T04:21:48.221Z,3.28
2022-07-29T04:24:15.595Z,3.50
2022-07-29T04:26:43.122Z,9.07
2022-07-29T04:29:10.162Z,4.50
2022-07-29T04:31:37.201Z,3.58
2022-07-29T04:34:04.301Z,3.97
2022-07-29T04:36:31.247Z,7.60
2022-07-29T04:38:58.268Z,3.70
2022-07-29T04:41:28.534Z,3.53
2022-07-29T04:44:00.865Z,3.70
2022-07-29T04:46:28.888Z,3.53
2022-07-29T04:48:55.999Z,3.30
2022-07-29T04:51:23.222Z,3.47
2022-07-29T04:53:50.157Z,3.42
2022-07-29T04:56:17.197Z,3.55
2022-07-29T04:58:44.300Z,3.50
2022-07-29T05:01:11.320Z,2.90
2022-07-29T05:03:38.325Z,3.22
2022-07-29T05:06:05.384Z,3.03
2022-07-29T05:08:32.677Z,3.08
2022-07-29T05:11:11.280Z,3.08
2022-07-29T05:13:45.254Z,3.45
2022-07-29T05:16:13.279Z,2.63
2022-07-29T05:18:40.403Z,2.95
2022-07-29T05:21:07.337Z,3.03
2022-07-29T05:23:34.296Z,2.90
2022-07-29T05:26:01.800Z,2.90
2022-07-29T05:28:28.779Z,3.10
2022-07-29T05:30:55.914Z,2.70
2022-07-29T05:33:36.074Z,3.28
2022-07-29T05:36:05.321Z,2.88
2022-07-29T05:38:32.269Z,2.92
2022-07-29T05:40:59.965Z,2.85
2022-07-29T05:43:31.242Z,3.47
2022-07-29T05:45:58.347Z,2.97
2022-07-29T05:48:25.868Z,2.53
2022-07-29T05:50:52.862Z,2.70
2022-07-29T05:53:20.796Z,2.70
2022-07-29T05:55:48.972Z,2.90
2022-07-29T05:58:16.205Z,3.13
2022-07-29T06:00:43.463Z,2.80
2022-07-29T06:03:10.409Z,2.67
2022-07-29T06:05:37.587Z,2.90
2022-07-29T06:08:04.896Z,2.60
2022-07-29T06:10:31.904Z,2.65
2022-07-29T06:12:59.259Z,2.60
2022-07-29T06:15:26.373Z,2.63
2022-07-29T06:18:00.126Z,2.95
2022-07-29T06:20:32.564Z,2.47
2022-07-29T06:23:00.282Z,2.45
2022-07-29T06:25:28.084Z,2.53
2022-07-29T06:27:54.985Z,2.60
2022-07-29T06:30:22.419Z,2.78
2022-07-29T06:32:49.525Z,2.50
2022-07-29T06:38:29.989Z,2.75
2022-07-29T06:40:51.379Z,2.45
2022-07-29T06:43:18.528Z,2.75
2022-07-29T06:45:45.494Z,2.33
2022-07-29T06:48:12.896Z,2.88
2022-07-29T06:50:39.810Z,2.53
2022-07-29T06:53:07.239Z,2.22
2022-07-29T06:55:34.405Z,2.40
2022-07-29T06:58:01.292Z,2.88
2022-07-29T07:00:28.279Z,2.47
2022-07-29T07:02:55.379Z,2.40
2022-07-29T07:05:22.402Z,2.90
2022-07-29T07:07:49.492Z,2.75
2022-07-29T07:10:16.441Z,2.40
2022-07-29T07:12:43.793Z,2.67
2022-07-29T07:15:11.102Z,2.70
2022-07-29T07:17:38.088Z,2.60
2022-07-29T07:20:07.269Z,2.60
2022-07-29T07:22:38.870Z,2.90
2022-07-29T07:25:06.599Z,2.95
2022-07-29T07:27:33.627Z,3.08
2022-07-29T07:30:00.551Z,2.83
2022-07-29T07:32:27.719Z,3.03
2022-07-29T07:34:54.740Z,2.63
2022-07-29T07:37:21.680Z,2.92
2022-07-29T07:39:48.803Z,2.97
2022-07-29T07:42:15.702Z,5.32
2022-07-29T07:45:11.071Z,3.17
2022-07-29T07:47:29.702Z,3.15
2022-07-29T07:49:56.636Z,3.03
2022-07-29T07:52:23.711Z,2.80
2022-07-29T07:54:50.736Z,3.10
2022-07-29T07:57:18.234Z,2.95
2022-07-29T07:59:45.512Z,2.80
2022-07-29T08:02:12.582Z,2.60
2022-07-29T08:04:39.720Z,2.95
2022-07-29T08:07:06.749Z,2.83
2022-07-29T08:09:33.843Z,2.58
2022-07-29T08:12:01.233Z,2.90
2022-07-29T08:14:28.189Z,2.80
2022-07-29T08:16:55.155Z,3.25
2022-07-29T08:19:22.146Z,3.00
2022-07-29T08:21:51.698Z,2.80
2022-07-29T08:24:18.773Z,3.00
2022-07-29T08:26:46.072Z,3.08
2022-07-29T08:29:17.061Z,2.65
2022-07-29T08:31:46.756Z,3.03
2022-07-29T08:34:13.908Z,2.95
2022-07-29T08:36:40.915Z,3.00
2022-07-29T08:39:08.039Z,2.55
2022-07-29T08:41:35.533Z,2.60
2022-07-29T08:44:02.581Z,2.92
2022-07-29T08:46:29.517Z,2.80
2022-07-29T08:48:56.963Z,2.67
2022-07-29T08:51:26.649Z,2.80
2022-07-29T08:53:55.257Z,2.80
2022-07-29T08:56:22.937Z,2.90
2022-07-29T08:58:52.343Z,2.90
2022-07-29T09:01:23.705Z,2.85
2022-07-29T09:04:05.478Z,2.72
2022-07-29T09:06:37.772Z,2.60
2022-07-29T09:09:05.229Z,2.80
2022-07-29T09:11:33.667Z,2.70
2022-07-29T09:14:00.659Z,2.95
2022-07-29T09:16:59.606Z,3.00
2022-07-29T09:19:33.868Z,2.72
2022-07-29T09:22:03.496Z,2.70
2022-07-29T09:24:45.234Z,2.85
2022-07-29T09:27:23.031Z,2.60
2022-07-29T09:30:05.020Z,2.67
2022-07-29T09:32:32.846Z,2.60
2022-07-29T09:35:16.207Z,2.50
2022-07-29T09:37:44.490Z,2.72
2022-07-29T09:40:27.152Z,2.83
2022-07-29T09:42:55.196Z,2.90
2022-07-29T09:45:32.114Z,2.70
2022-07-29T09:47:59.713Z,2.55
2022-07-29T09:50:40.653Z,2.50
2022-07-29T09:53:07.847Z,2.20
2022-07-29T09:55:50.680Z,2.28
2022-07-29T09:58:20.371Z,2.50
2022-07-29T10:00:47.923Z,2.53
2022-07-29T10:03:16.768Z,2.50
2022-07-29T10:05:45.143Z,2.50
2022-07-29T10:08:12.953Z,2.88
2022-07-29T10:10:43.132Z,2.85
2022-07-29T10:13:15.812Z,2.45
2022-07-29T10:15:46.375Z,2.40
2022-07-29T10:18:14.902Z,2.60
2022-07-29T10:20:42.336Z,2.38
2022-07-29T10:23:10.408Z,2.67
2022-07-29T10:25:37.557Z,2.20
2022-07-29T10:28:06.425Z,2.08
2022-07-29T10:30:33.677Z,2.60
2022-07-29T10:33:14.864Z,2.20
2022-07-29T10:35:41.821Z,2.78
2022-07-29T10:38:21.104Z,2.47
2022-07-29T10:41:13.538Z,2.45
2022-07-29T10:43:51.156Z,2.50
2022-07-29T10:46:19.881Z,2.10
2022-07-29T10:49:09.548Z,2.42
2022-07-29T10:51:59.204Z,2.20
2022-07-29T10:54:39.671Z,2.33
2022-07-29T10:57:16.606Z,2.60
2022-07-29T10:59:45.932Z,2.60
2022-07-29T11:02:42.326Z,2.63
2022-07-29T11:05:13.991Z,2.60
2022-07-29T11:08:20.409Z,2.40
2022-07-29T11:10:49.508Z,2.15
2022-07-29T11:13:44.474Z,2.42
2022-07-29T11:16:11.483Z,2.20
2022-07-29T11:19:14.027Z,2.40
2022-07-29T11:24:31.256Z,2.25
2022-07-29T11:27:19.516Z,2.30
2022-07-29T11:29:58.884Z,2.25
2022-07-29T11:32:38.491Z,2.60
2022-07-29T11:35:38.465Z,2.35
2022-07-29T11:38:28.036Z,2.17
2022-07-29T11:41:21.112Z,2.45
2022-07-29T11:43:52.567Z,2.50
2022-07-29T11:46:45.485Z,2.47
2022-07-29T11:49:15.305Z,2.38
2022-07-29T11:51:48.324Z,2.30
2022-07-29T11:54:27.271Z,2.38
2022-07-29T11:56:54.639Z,2.40
2022-07-29T11:59:22.627Z,2.05
2022-07-29T12:02:18.568Z,2.22
2022-07-29T12:04:55.276Z,2.22
2022-07-29T12:07:33.868Z,2.10
2022-07-29T12:10:03.973Z,2.05
2022-07-29T12:12:34.336Z,2.20
2022-07-29T12:15:15.955Z,2.22
2022-07-29T12:17:43.274Z,2.10
2022-07-29T12:20:10.663Z,2.15
2022-07-29T12:22:41.893Z,1.92
2022-07-29T12:25:32.562Z,2.25
2022-07-29T12:28:05.441Z,2.20
2022-07-29T12:30:47.498Z,1.90
2022-07-29T12:33:17.225Z,1.83
2022-07-29T12:35:58.107Z,2.07
2022-07-29T12:38:30.999Z,2.10
2022-07-29T12:40:58.185Z,2.10
2022-07-29T12:43:26.092Z,2.20
2022-07-29T12:45:55.406Z,2.22
2022-07-29T12:48:40.547Z,2.10
2022-07-29T12:51:08.696Z,2.17
2022-07-29T12:53:36.591Z,2.20
2022-07-29T12:56:15.490Z,2.35
2022-07-29T12:58:51.093Z,2.10
2022-07-29T13:03:56.969Z,2.33
2022-07-29T13:06:32.396Z,2.38
2022-07-29T13:09:13.244Z,2.15
2022-07-29T13:11:48.977Z,2.10
2022-07-29T13:14:41.333Z,2.10
2022-07-29T13:17:16.714Z,1.95
2022-07-29T13:19:47.102Z,1.90
2022-07-29T13:22:25.267Z,2.00
2022-07-29T13:24:57.990Z,2.20
2022-07-29T13:27:30.111Z,1.98
2022-07-29T13:29:58.875Z,2.35
2022-07-29T13:32:28.557Z,1.98
2022-07-29T13:35:01.732Z,1.92
2022-07-29T13:37:33.452Z,2.30
2022-07-29T13:40:00.684Z,3.33
2022-07-29T13:42:28.658Z,2.42
2022-07-29T13:44:55.766Z,2.22
2022-07-29T13:47:32.089Z,2.20
2022-07-29T13:50:05.163Z,2.10
2022-07-29T13:52:33.965Z,2.00
2022-07-29T13:55:01.263Z,1.95
2022-07-29T13:57:28.263Z,3.05
2022-07-29T13:59:55.254Z,2.30
2022-07-29T14:02:25.323Z,2.15
2022-07-29T14:04:53.799Z,2.47
2022-07-29T14:07:20.837Z,2.38
2022-07-29T14:09:47.953Z,2.40
2022-07-29T14:12:14.970Z,2.00
2022-07-29T14:14:41.935Z,2.25
2022-07-29T14:17:09.069Z,1.85
2022-07-29T14:19:36.845Z,2.00
2022-07-29T14:22:09.023Z,2.20
2022-07-29T14:24:37.536Z,2.20
2022-07-29T14:27:08.944Z,2.40
2022-07-29T14:29:38.230Z,2.42
2022-07-29T14:32:10.204Z,2.30
2022-07-29T14:34:38.474Z,2.30
2022-07-29T14:37:06.603Z,2.20
2022-07-29T14:39:39.348Z,2.30
2022-07-29T14:42:12.529Z,2.05
2022-07-29T14:44:39.994Z,2.55
2022-07-29T14:47:08.154Z,2.38
2022-07-29T14:49:35.956Z,1.98
2022-07-29T14:52:03.471Z,2.45
2022-07-29T14:54:30.417Z,3.45
2022-07-29T14:56:57.382Z,2.17
2022-07-29T14:59:24.396Z,2.20
2022-07-29T15:01:51.353Z,2.47
2022-07-29T15:04:18.741Z,2.00
2022-07-29T15:06:45.796Z,2.30
2022-07-29T15:09:12.857Z,2.20
2022-07-29T15:11:39.871Z,2.40
2022-07-29T15:14:07.392Z,2.10
2022-07-29T15:16:37.442Z,2.45
2022-07-29T15:19:05.194Z,2.22
2022-07-29T15:21:32.284Z,2.47
2022-07-29T15:23:59.234Z,2.33
2022-07-29T15:26:27.200Z,2.25
2022-07-29T15:28:54.168Z,2.10
2022-07-29T15:31:21.181Z,1.98
2022-07-29T15:33:48.260Z,2.83
2022-07-29T15:36:35.736Z,2.22
2022-07-29T15:39:02.258Z,2.25
2022-07-29T15:41:29.224Z,2.20
2022-07-29T15:43:56.280Z,2.17
2022-07-29T15:46:23.359Z,1.90
2022-07-29T15:48:50.409Z,1.92
2022-07-29T15:51:17.448Z,2.08
2022-07-29T15:53:44.467Z,2.50
2022-07-29T15:56:21.101Z,2.10
2022-07-29T15:58:48.064Z,2.03
2022-07-29T16:01:15.403Z,2.40
2022-07-29T16:03:46.109Z,2.13
2022-07-29T16:06:14.367Z,2.20
2022-07-29T16:08:41.439Z,2.35
2022-07-29T16:11:09.041Z,1.98
2022-07-29T16:13:36.014Z,2.05
2022-07-29T16:16:03.392Z,6.45
2022-07-29T16:18:30.786Z,2.45
2022-07-29T16:20:59.252Z,2.30
2022-07-29T16:23:26.101Z,2.00
2022-07-29T16:26:01.197Z,2.40
2022-07-29T16:28:29.685Z,2.10
2022-07-29T16:30:57.020Z,2.25
2022-07-29T16:33:24.591Z,2.20
2022-07-29T16:35:52.417Z,2.13
2022-07-29T16:38:19.570Z,2.30
2022-07-29T16:40:47.062Z,1.83
2022-07-29T16:43:14.061Z,2.20
2022-07-29T16:45:45.471Z,2.58
2022-07-29T16:48:18.160Z,2.17
2022-07-29T16:50:46.278Z,2.60
2022-07-29T16:53:13.263Z,1.90
2022-07-29T16:55:42.482Z,2.38
2022-07-29T16:58:10.545Z,2.25
2022-07-29T17:00:38.024Z,2.20
2022-07-29T17:03:05.341Z,2.00
2022-07-29T17:05:52.736Z,2.35
2022-07-29T17:08:19.706Z,2.60
2022-07-29T17:10:46.898Z,2.40
2022-07-29T17:13:13.930Z,2.42
2022-07-29T17:15:41.517Z,2.13
2022-07-29T17:18:12.427Z,2.50
2022-07-29T17:20:41.797Z,2.80
2022-07-29T17:23:09.147Z,2.75
2022-07-29T17:25:52.107Z,3.20
2022-07-29T17:28:26.812Z,2.88
2022-07-29T17:31:25.921Z,4.47
2022-07-29T17:34:00.781Z,3.20
2022-07-29T17:36:29.944Z,3.30
2022-07-29T17:39:01.505Z,3.38
2022-07-29T17:41:28.939Z,3.65
2022-07-29T17:43:56.370Z,3.58
2022-07-29T17:46:24.897Z,3.30
2022-07-29T17:48:52.296Z,3.20
2022-07-29T17:51:19.292Z,3.22
2022-07-29T17:53:46.347Z,3.40
2022-07-29T17:56:13.393Z,3.00
2022-07-29T17:58:40.426Z,3.05
2022-07-29T18:01:07.480Z,3.40
2022-07-29T18:03:34.679Z,3.17
2022-07-29T18:06:04.446Z,3.75
2022-07-29T18:08:31.600Z,3.60
2022-07-29T18:10:58.767Z,3.50
2022-07-29T18:13:25.742Z,3.50
2022-07-29T18:15:55.420Z,2.75
2022-07-29T18:18:24.544Z,3.20
2022-07-29T18:20:51.470Z,4.00
2022-07-29T18:23:18.447Z,4.30
2022-07-29T18:25:45.502Z,5.45
2022-07-29T18:28:12.696Z,5.03
2022-07-29T18:30:39.586Z,5.18
2022-07-29T18:33:22.635Z,5.07
2022-07-29T18:35:51.482Z,5.30
2022-07-29T18:38:19.126Z,5.70
2022-07-29T18:40:46.431Z,5.75
2022-07-29T18:43:13.742Z,6.10
2022-07-29T18:45:42.552Z,5.80
2022-07-29T18:48:12.615Z,5.63
2022-07-29T18:50:40.367Z,5.32
2022-07-29T18:53:07.927Z,5.63
2022-07-29T18:55:34.973Z,5.18
2022-07-29T18:58:02.044Z,6.10
2022-07-29T19:00:29.028Z,5.75
2022-07-29T19:02:56.824Z,5.65
2022-07-29T19:05:24.243Z,5.82
2022-07-29T19:07:51.434Z,5.10
2022-07-29T19:10:18.445Z,5.10
2022-07-29T19:12:45.583Z,4.53
2022-07-29T19:15:12.628Z,5.10
2022-07-29T19:17:47.332Z,5.47
2022-07-29T19:20:14.415Z,5.55
2022-07-29T19:22:41.409Z,5.35
2022-07-29T19:25:08.827Z,5.20
2022-07-29T19:27:35.818Z,5.05
2022-07-29T19:30:02.949Z,4.90
2022-07-29T19:32:29.943Z,5.00
2022-07-29T19:34:57.274Z,4.93
2022-07-29T19:37:24.185Z,4.50
2022-07-29T19:39:51.112Z,4.35
2022-07-29T19:42:18.031Z,4.25
2022-07-29T19:44:44.977Z,4.28
2022-07-29T19:47:11.929Z,4.05
2022-07-29T19:49:44.419Z,3.75
2022-07-29T19:52:11.433Z,3.53
2022-07-29T19:54:38.412Z,3.85
2022-07-29T19:57:05.372Z,3.67
2022-07-29T19:59:32.349Z,4.10
2022-07-29T20:01:59.357Z,4.07
2022-07-29T20:04:26.399Z,3.70
2022-07-29T20:06:53.437Z,3.60
2022-07-29T20:09:20.967Z,3.85
2022-07-29T20:11:47.903Z,3.60
2022-07-29T20:14:14.925Z,3.88
2022-07-29T20:16:41.851Z,4.00
2022-07-29T20:19:08.864Z,4.13
2022-07-29T20:21:35.802Z,4.95
2022-07-29T20:24:04.011Z,4.93
2022-07-29T20:26:31.478Z,4.75
2022-07-29T20:28:59.805Z,4.25
2022-07-29T20:31:26.761Z,4.57
2022-07-29T20:33:53.689Z,4.70
2022-07-29T20:36:20.637Z,4.20
2022-07-29T20:38:47.600Z,4.03
2022-07-29T20:41:14.634Z,4.03
2022-07-29T20:43:41.795Z,3.90
2022-07-29T20:46:08.943Z,3.80
2022-07-29T20:48:36.230Z,4.40
2022-07-29T20:51:03.277Z,4.38
2022-07-29T20:53:30.259Z,3.97
2022-07-29T20:55:57.155Z,5.00
2022-07-29T20:58:24.168Z,4.40
2022-07-29T21:00:51.522Z,4.80
2022-07-29T21:03:18.496Z,4.75
2022-07-29T21:05:45.619Z,4.35
2022-07-29T21:08:12.563Z,4.50
2022-07-29T21:10:39.570Z,4.50
2022-07-29T21:13:06.552Z,4.25
2022-07-29T21:15:33.584Z,4.30
2022-07-29T21:18:00.608Z,4.07
2022-07-29T21:20:27.713Z,3.97
2022-07-29T21:22:54.914Z,4.20
2022-07-29T21:25:22.845Z,4.00
2022-07-29T21:27:50.218Z,3.50
2022-07-29T21:30:17.325Z,3.90
2022-07-29T21:32:44.343Z,3.80
2022-07-29T21:35:27.278Z,3.88
2022-07-29T21:37:58.653Z,3.78
2022-07-29T21:40:25.649Z,3.80
2022-07-29T21:42:52.608Z,3.80
2022-07-29T21:45:19.740Z,3.60
2022-07-29T21:47:46.705Z,3.65
2022-07-29T21:50:13.617Z,3.33
2022-07-29T21:52:40.708Z,3.65
2022-07-29T21:55:08.373Z,3.28
2022-07-29T21:57:37.615Z,3.35
2022-07-29T22:00:05.950Z,3.45
2022-07-29T22:02:39.724Z,3.65
2022-07-29T22:05:06.928Z,3.67
2022-07-29T22:07:54.780Z,3.92
2022-07-29T22:10:21.498Z,3.63
2022-07-29T22:12:54.319Z,3.42
2022-07-29T22:15:22.108Z,3.80
2022-07-29T22:17:49.398Z,4.15
2022-07-29T22:20:16.500Z,3.33
2022-07-29T22:22:43.533Z,3.50
2022-07-29T22:25:11.146Z,3.15
2022-07-29T22:27:38.683Z,3.80
2022-07-29T22:30:06.888Z,3.92
2022-07-29T22:32:34.519Z,3.83
2022-07-29T22:35:01.510Z,3.78
2022-07-29T22:37:28.571Z,3.90
2022-07-29T22:39:55.562Z,3.63
2022-07-29T22:42:22.523Z,3.53
2022-07-29T22:44:49.541Z,3.78
2022-07-29T22:47:16.520Z,4.10
2022-07-29T22:49:43.554Z,4.07
2022-07-29T22:52:10.574Z,4.10
2022-07-29T22:54:37.668Z,3.80
2022-07-29T22:57:05.795Z,4.30
2022-07-29T22:59:32.747Z,4.20
2022-07-29T23:01:59.736Z,3.70
2022-07-29T23:04:26.663Z,3.42
2022-07-29T23:06:53.654Z,3.40
2022-07-29T23:09:20.595Z,3.75
2022-07-29T23:11:47.737Z,3.60
2022-07-29T23:14:15.118Z,3.60
2022-07-29T23:16:42.231Z,3.30
2022-07-29T23:19:09.151Z,3.22
2022-07-29T23:21:36.126Z,3.20
2022-07-29T23:24:03.126Z,3.58
2022-07-29T23:26:30.029Z,4.05
2022-07-29T23:28:56.925Z,3.30
2022-07-29T23:31:23.914Z,3.53
2022-07-29T23:33:50.834Z,3.47
2022-07-29T23:36:17.765Z,3.42
2022-07-29T23:38:44.762Z,3.35
2022-07-29T23:41:11.805Z,3.80
2022-07-29T23:43:38.839Z,3.40
2022-07-29T23:46:06.378Z,3.50
2022-07-29T23:48:34.326Z,3.67
2022-07-29T23:51:01.365Z,3.42
2022-07-29T23:53:28.843Z,3.58
2022-07-29T23:55:56.202Z,3.90
2022-07-29T23:58:23.460Z,3.40
